createdAt,value
2023-04-11T00:00:54.019Z,572.3846
2023-04-11T00:01:55.684Z,571.8461
2023-04-11T00:02:57.621Z,571.2308
2023-04-11T00:03:59.146Z,574.1539
2023-04-11T00:05:00.739Z,575.1539
2023-04-11T00:06:02.279Z,578.1539
2023-04-11T00:07:03.902Z,580.1539
2023-04-11T00:08:05.642Z,580.8461
2023-04-11T00:09:07.216Z,578.9231
2023-04-11T00:10:08.871Z,575.9231
2023-04-11T00:11:10.649Z,575.3077
2023-04-11T00:12:12.180Z,575.1539
2023-04-11T00:13:13.935Z,573.8461
2023-04-11T00:14:16.097Z,574.6154
2023-04-11T00:15:17.141Z,573.4615
2023-04-11T00:16:18.851Z,572.1539
2023-04-11T00:17:20.471Z,573.0769
2023-04-11T00:18:22.165Z,569.8461
2023-04-11T00:19:23.770Z,570.8461
2023-04-11T00:20:25.449Z,573.5385
2023-04-11T00:21:27.126Z,575.5385
2023-04-11T00:22:28.744Z,577.9231
2023-04-11T00:23:31.292Z,578.0000
2023-04-11T00:24:32.073Z,578.1539
2023-04-11T00:25:33.796Z,576.7692
2023-04-11T00:26:35.370Z,576.3077
2023-04-11T00:27:37.019Z,577.6923
2023-04-11T00:28:38.766Z,575.0769
2023-04-11T00:29:40.417Z,574.7692
2023-04-11T00:30:42.031Z,572.0000
2023-04-11T00:31:43.742Z,571.5385
2023-04-11T00:32:45.366Z,570.6923
2023-04-11T00:33:47.058Z,569.2308
2023-04-11T00:34:48.714Z,566.6154
2023-04-11T00:35:50.364Z,566.5385
2023-04-11T00:36:52.034Z,568.1539
2023-04-11T00:37:53.576Z,569.7692
2023-04-11T00:38:56.001Z,569.6154
2023-04-11T00:39:57.013Z,567.7692
2023-04-11T00:40:58.625Z,568.8461
2023-04-11T00:42:00.321Z,570.1539
2023-04-11T00:43:02.045Z,571.6154
2023-04-11T00:44:03.638Z,571.9231
2023-04-11T00:45:05.264Z,569.7692
2023-04-11T00:46:07.030Z,570.8461
2023-04-11T00:47:08.675Z,572.6923
2023-04-11T00:48:10.227Z,572.0000
2023-04-11T00:49:11.904Z,571.6154
2023-04-11T00:50:13.558Z,569.0000
2023-04-11T00:51:15.291Z,567.0000
2023-04-11T00:52:16.857Z,567.0000
2023-04-11T00:53:18.548Z,567.6154
2023-04-11T00:54:20.213Z,566.6154
2023-04-11T00:55:21.800Z,565.5385
2023-04-11T00:56:23.432Z,564.7692
2023-04-11T00:57:25.155Z,565.5385
2023-04-11T00:58:26.790Z,565.3846
2023-04-11T00:59:28.395Z,565.5385
2023-04-11T01:00:30.176Z,567.6923
2023-04-11T01:01:32.801Z,570.9231
2023-04-11T01:02:33.446Z,571.0769
2023-04-11T01:03:35.160Z,572.3846
2023-04-11T01:04:36.770Z,572.8461
2023-04-11T01:05:38.401Z,572.6154
2023-04-11T01:06:40.032Z,571.3077
2023-04-11T01:07:41.678Z,568.6154
2023-04-11T01:08:43.304Z,570.0000
2023-04-11T01:09:45.006Z,571.2308
2023-04-11T01:10:46.634Z,572.0000
2023-04-11T01:11:48.266Z,571.0000
2023-04-11T01:12:49.906Z,571.1539
2023-04-11T01:13:51.592Z,573.2308
2023-04-11T01:14:53.267Z,574.5385
2023-04-11T01:15:54.927Z,571.4615
2023-04-11T01:16:56.699Z,571.3846
2023-04-11T01:17:58.258Z,572.3077
2023-04-11T01:18:59.901Z,572.0000
2023-04-11T01:20:01.766Z,571.2308
2023-04-11T01:21:03.177Z,571.4615
2023-04-11T01:22:04.755Z,574.0769
2023-04-11T01:23:05.306Z,571.7500
2023-04-11T01:24:08.139Z,570.7143
2023-04-11T01:25:10.247Z,569.6923
2023-04-11T01:26:11.518Z,571.8461
2023-04-11T01:27:13.170Z,572.6154
2023-04-11T01:28:14.891Z,573.0769
2023-04-11T01:29:16.409Z,572.9231
2023-04-11T01:30:18.237Z,573.5385
2023-04-11T01:31:19.728Z,574.4615
2023-04-11T01:32:21.436Z,574.1539
2023-04-11T01:33:23.063Z,576.0000
2023-04-11T01:34:24.755Z,573.9231
2023-04-11T01:35:27.212Z,574.4615
2023-04-11T01:36:28.023Z,575.4615
2023-04-11T01:37:29.590Z,576.6923
2023-04-11T01:38:31.290Z,576.3846
2023-04-11T01:39:33.011Z,576.3077
2023-04-11T01:40:34.649Z,575.4615
2023-04-11T01:41:36.251Z,574.8461
2023-04-11T01:42:38.001Z,573.3846
2023-04-11T01:43:39.529Z,574.2308
2023-04-11T01:44:41.200Z,573.1539
2023-04-11T01:45:42.881Z,573.6154
2023-04-11T01:46:44.561Z,573.3077
2023-04-11T01:47:47.046Z,573.5385
2023-04-11T01:48:47.945Z,573.3846
2023-04-11T01:49:49.485Z,573.2308
2023-04-11T01:50:51.152Z,572.8461
2023-04-11T01:51:52.795Z,570.7692
2023-04-11T01:52:54.524Z,570.6154
2023-04-11T01:53:56.123Z,570.3846
2023-04-11T01:54:58.291Z,570.9231
2023-04-11T01:55:59.416Z,570.9231
2023-04-11T01:57:01.016Z,571.8461
2023-04-11T01:58:02.737Z,574.7692
2023-04-11T01:59:04.393Z,574.3077
2023-04-11T02:00:06.706Z,572.6923
2023-04-11T02:01:07.859Z,571.2308
2023-04-11T02:02:09.471Z,570.0769
2023-04-11T02:03:11.121Z,569.9231
2023-04-11T02:04:12.825Z,570.1539
2023-04-11T02:05:14.344Z,571.5385
2023-04-11T02:06:16.598Z,568.2308
2023-04-11T02:07:17.658Z,565.7692
2023-04-11T02:08:19.218Z,565.6154
2023-04-11T02:09:20.892Z,562.3846
2023-04-11T02:10:22.533Z,561.5385
2023-04-11T02:11:24.322Z,561.9231
2023-04-11T02:12:25.870Z,560.6154
2023-04-11T02:13:27.416Z,562.7692
2023-04-11T02:14:29.133Z,564.6154
2023-04-11T02:15:30.934Z,564.6923
2023-04-11T02:16:32.536Z,565.7692
2023-04-11T02:17:34.226Z,566.4615
2023-04-11T02:18:35.728Z,567.3846
2023-04-11T02:19:37.457Z,569.9231
2023-04-11T02:20:39.140Z,571.1539
2023-04-11T02:21:40.790Z,569.8461
2023-04-11T02:22:42.458Z,568.8461
2023-04-11T02:23:44.147Z,569.1539
2023-04-11T02:24:45.741Z,570.1539
2023-04-11T02:25:48.224Z,569.0000
2023-04-11T02:26:49.148Z,565.7692
2023-04-11T02:27:50.803Z,564.0769
2023-04-11T02:28:52.462Z,561.3077
2023-04-11T02:29:54.031Z,561.8461
2023-04-11T02:30:55.732Z,562.1539
2023-04-11T02:31:57.374Z,561.2308
2023-04-11T02:32:59.028Z,562.0769
2023-04-11T02:34:00.635Z,561.1539
2023-04-11T02:35:02.320Z,559.9231
2023-04-11T02:36:04.110Z,560.3846
2023-04-11T02:37:05.747Z,561.6154
2023-04-11T02:38:07.189Z,562.5385
2023-04-11T02:39:08.912Z,565.0000
2023-04-11T02:40:10.495Z,567.8461
2023-04-11T02:41:12.190Z,569.2308
2023-04-11T02:42:14.583Z,566.7692
2023-04-11T02:43:15.601Z,563.9231
2023-04-11T02:44:17.207Z,566.0000
2023-04-11T02:45:18.881Z,566.6154
2023-04-11T02:46:20.443Z,569.0769
2023-04-11T02:47:22.362Z,569.5385
2023-04-11T02:48:23.861Z,570.1539
2023-04-11T02:49:25.428Z,570.3077
2023-04-11T02:50:27.124Z,571.3077
2023-04-11T02:51:28.816Z,571.8461
2023-04-11T02:52:30.444Z,573.2308
2023-04-11T02:53:32.075Z,574.4615
2023-04-11T02:54:33.806Z,576.1539
2023-04-11T02:55:35.422Z,577.3846
2023-04-11T02:56:37.019Z,578.7692
2023-04-11T02:57:38.648Z,577.2308
2023-04-11T02:58:40.324Z,575.8461
2023-04-11T02:59:41.942Z,573.9231
2023-04-11T03:00:43.644Z,572.3846
2023-04-11T03:01:45.351Z,571.1539
2023-04-11T03:02:46.933Z,570.9231
2023-04-11T03:03:48.595Z,570.4615
2023-04-11T03:04:50.207Z,569.6154
2023-04-11T03:05:51.785Z,566.9231
2023-04-11T03:06:53.438Z,565.6923
2023-04-11T03:07:55.237Z,564.1539
2023-04-11T03:08:57.489Z,563.5385
2023-04-11T03:09:58.526Z,562.7692
2023-04-11T03:11:00.082Z,563.9231
2023-04-11T03:12:01.726Z,564.0769
2023-04-11T03:13:04.312Z,565.8461
2023-04-11T03:14:05.070Z,565.0769
2023-04-11T03:15:06.738Z,561.4615
2023-04-11T03:16:08.435Z,563.6923
2023-04-11T03:17:09.986Z,563.2308
2023-04-11T03:18:11.698Z,562.1539
2023-04-11T03:19:13.423Z,564.3846
2023-04-11T03:20:14.993Z,565.6923
2023-04-11T03:21:16.620Z,565.6923
2023-04-11T03:22:18.256Z,565.5385
2023-04-11T03:23:19.963Z,565.7692
2023-04-11T03:24:21.591Z,565.7692
2023-04-11T03:25:23.335Z,568.6923
2023-04-11T03:26:24.942Z,567.6923
2023-04-11T03:27:26.547Z,565.9231
2023-04-11T03:28:29.236Z,566.6923
2023-04-11T03:29:29.905Z,565.6154
2023-04-11T03:30:31.512Z,565.3846
2023-04-11T03:31:33.195Z,565.6154
2023-04-11T03:32:34.848Z,564.0000
2023-04-11T03:33:37.387Z,563.8461
2023-04-11T03:34:38.198Z,564.0769
2023-04-11T03:35:39.887Z,564.6154
2023-04-11T03:36:41.491Z,563.5385
2023-04-11T03:37:43.076Z,563.0769
2023-04-11T03:38:44.699Z,565.4615
2023-04-11T03:39:46.477Z,564.9231
2023-04-11T03:40:48.070Z,564.3077
2023-04-11T03:41:49.738Z,564.0000
2023-04-11T03:42:51.368Z,564.2308
2023-04-11T03:43:53.013Z,566.9231
2023-04-11T03:44:54.740Z,566.7692
2023-04-11T03:45:56.380Z,568.6923
2023-04-11T03:46:58.067Z,570.2308
2023-04-11T03:47:59.660Z,569.2308
2023-04-11T03:49:01.270Z,568.3077
2023-04-11T03:50:03.291Z,568.3077
2023-04-11T03:51:04.602Z,568.3077
2023-04-11T03:52:06.216Z,567.0000
2023-04-11T03:53:07.854Z,564.5385
2023-04-11T03:54:09.514Z,564.4615
2023-04-11T03:55:11.186Z,564.2308
2023-04-11T03:56:12.822Z,563.3846
2023-04-11T03:57:14.587Z,561.6154
2023-04-11T03:58:16.168Z,560.9231
2023-04-11T03:59:17.816Z,561.9231
2023-04-11T04:00:20.139Z,560.1539
2023-04-11T04:01:21.141Z,559.3077
2023-04-11T04:02:22.957Z,560.6154
2023-04-11T04:03:24.680Z,563.3846
2023-04-11T04:04:26.262Z,566.3077
2023-04-11T04:05:27.752Z,564.6154
2023-04-11T04:06:29.370Z,563.9231
2023-04-11T04:07:31.077Z,564.6923
2023-04-11T04:08:32.690Z,565.0000
2023-04-11T04:09:34.431Z,563.9231
2023-04-11T04:10:35.973Z,564.3846
2023-04-11T04:11:37.665Z,563.6154
2023-04-11T04:12:39.362Z,563.0000
2023-04-11T04:13:40.979Z,562.4615
2023-04-11T04:14:42.662Z,563.4615
2023-04-11T04:15:44.300Z,564.0769
2023-04-11T04:16:46.060Z,564.9231
2023-04-11T04:17:47.618Z,565.3077
2023-04-11T04:18:49.249Z,565.2308
2023-04-11T04:19:50.903Z,566.3846
2023-04-11T04:20:52.533Z,567.5385
2023-04-11T04:21:54.210Z,569.6923
2023-04-11T04:22:55.830Z,567.6154
2023-04-11T04:23:57.622Z,565.4615
2023-04-11T04:24:59.445Z,566.0000
2023-04-11T04:26:00.831Z,567.2308
2023-04-11T04:27:02.528Z,570.0000
2023-04-11T04:28:04.081Z,570.3846
2023-04-11T04:29:05.756Z,567.3077
2023-04-11T04:30:07.462Z,565.3077
2023-04-11T04:31:09.078Z,564.2308
2023-04-11T04:32:10.883Z,563.3846
2023-04-11T04:33:12.535Z,562.3846
2023-04-11T04:34:14.007Z,562.7692
2023-04-11T04:35:15.672Z,565.5385
2023-04-11T04:36:17.225Z,566.4615
2023-04-11T04:37:18.940Z,564.8461
2023-04-11T04:38:20.556Z,565.8461
2023-04-11T04:39:22.208Z,567.6154
2023-04-11T04:40:23.913Z,567.6923
2023-04-11T04:41:25.517Z,566.1539
2023-04-11T04:42:27.172Z,563.4615
2023-04-11T04:43:28.925Z,563.9231
2023-04-11T04:44:30.529Z,562.8461
2023-04-11T04:45:32.374Z,564.9231
2023-04-11T04:46:33.828Z,566.1539
2023-04-11T04:47:35.529Z,563.8461
2023-04-11T04:48:37.124Z,563.6154
2023-04-11T04:49:38.762Z,562.3077
2023-04-11T04:50:40.474Z,559.7692
2023-04-11T04:51:42.072Z,559.2308
2023-04-11T04:52:43.666Z,557.6923
2023-04-11T04:53:45.430Z,557.3077
2023-04-11T04:54:47.078Z,558.2308
2023-04-11T04:55:48.736Z,558.2308
2023-04-11T04:56:50.329Z,561.4615
2023-04-11T04:57:52.051Z,562.9231
2023-04-11T04:58:53.575Z,562.3846
2023-04-11T04:59:55.289Z,559.6154
2023-04-11T05:00:56.952Z,557.7692
2023-04-11T05:01:58.639Z,557.4615
2023-04-11T05:03:00.398Z,560.3077
2023-04-11T05:04:02.489Z,560.3846
2023-04-11T05:05:03.623Z,561.7692
2023-04-11T05:06:05.257Z,561.4615
2023-04-11T05:07:06.873Z,563.0769
2023-04-11T05:08:08.506Z,564.6154
2023-04-11T05:09:10.153Z,566.5385
2023-04-11T05:10:11.832Z,565.6154
2023-04-11T05:11:13.798Z,565.4615
2023-04-11T05:12:15.064Z,566.0000
2023-04-11T05:13:16.704Z,565.0769
2023-04-11T05:14:18.388Z,563.7692
2023-04-11T05:15:20.416Z,562.8461
2023-04-11T05:16:21.817Z,564.9231
2023-04-11T05:17:25.182Z,567.8461
2023-04-11T05:18:25.046Z,569.9231
2023-04-11T05:19:26.681Z,570.3077
2023-04-11T05:20:29.250Z,570.4615
2023-04-11T05:21:30.835Z,570.9231
2023-04-11T05:22:31.625Z,570.1539
2023-04-11T05:23:33.372Z,571.8461
2023-04-11T05:24:34.987Z,572.7692
2023-04-11T05:25:36.754Z,571.8461
2023-04-11T05:26:38.966Z,570.2308
2023-04-11T05:27:39.994Z,570.4615
2023-04-11T05:28:41.782Z,572.7692
2023-04-11T05:29:43.345Z,572.6923
2023-04-11T05:30:44.968Z,573.5385
2023-04-11T05:31:46.924Z,570.6154
2023-04-11T05:32:48.345Z,570.3077
2023-04-11T05:33:51.017Z,570.0000
2023-04-11T05:34:51.635Z,567.9231
2023-04-11T05:35:53.324Z,569.1539
2023-04-11T05:36:54.875Z,571.0769
2023-04-11T05:37:56.742Z,572.0769
2023-04-11T05:38:58.260Z,572.8461
2023-04-11T05:39:59.820Z,573.6154
2023-04-11T05:41:01.453Z,574.7692
2023-04-11T05:42:03.151Z,572.9231
2023-04-11T05:43:04.999Z,571.0769
2023-04-11T05:44:06.390Z,569.8461
2023-04-11T05:45:08.089Z,569.8461
2023-04-11T05:46:09.740Z,572.9231
2023-04-11T05:47:11.595Z,571.2308
2023-04-11T05:48:14.227Z,569.8461
2023-04-11T05:49:14.788Z,571.4167
2023-04-11T05:50:16.483Z,572.2308
2023-04-11T05:51:18.194Z,570.6154
2023-04-11T05:52:19.930Z,570.3077
2023-04-11T05:53:21.376Z,569.1539
2023-04-11T05:54:23.044Z,571.7692
2023-04-11T05:55:24.719Z,574.4615
2023-04-11T05:56:26.352Z,573.2308
2023-04-11T05:57:28.337Z,573.5385
2023-04-11T05:58:29.673Z,570.4615
2023-04-11T05:59:31.364Z,568.0769
2023-04-11T06:00:32.958Z,567.0769
2023-04-11T06:01:34.520Z,565.2308
2023-04-11T06:02:36.295Z,565.2308
2023-04-11T06:03:37.912Z,561.8461
2023-04-11T06:04:40.117Z,559.1539
2023-04-11T06:05:41.133Z,558.1539
2023-04-11T06:06:42.752Z,557.3846
2023-04-11T06:07:44.443Z,556.7692
2023-04-11T06:08:46.159Z,558.6154
2023-04-11T06:09:47.834Z,560.3846
2023-04-11T06:10:49.502Z,560.6923
2023-04-11T06:11:51.124Z,560.0769
2023-04-11T06:12:52.780Z,561.0000
2023-04-11T06:13:54.545Z,562.3846
2023-04-11T06:14:56.019Z,564.3077
2023-04-11T06:15:57.873Z,565.0000
2023-04-11T06:16:59.391Z,566.3846
2023-04-11T06:18:01.196Z,567.6154
2023-04-11T06:19:02.649Z,567.2308
2023-04-11T06:20:05.919Z,568.1539
2023-04-11T06:21:06.125Z,569.6154
2023-04-11T06:22:07.758Z,571.3846
2023-04-11T06:23:09.968Z,573.3077
2023-04-11T06:24:10.915Z,575.6923
2023-04-11T06:25:12.602Z,575.4615
2023-04-11T06:26:14.234Z,576.4615
2023-04-11T06:27:16.844Z,578.7692
2023-04-11T06:28:17.642Z,577.6923
2023-04-11T06:29:19.945Z,579.3077
2023-04-11T06:30:21.051Z,579.3077
2023-04-11T06:31:23.569Z,575.0000
2023-04-11T06:32:24.633Z,573.7692
2023-04-11T06:33:25.755Z,574.6154
2023-04-11T06:34:27.677Z,579.4615
2023-04-11T06:35:29.166Z,579.6154
2023-04-11T06:36:30.787Z,575.3077
2023-04-11T06:37:32.512Z,574.8461
2023-04-11T06:38:34.586Z,574.7692
2023-04-11T06:39:35.825Z,572.4615
2023-04-11T06:40:37.452Z,571.3077
2023-04-11T06:41:39.026Z,570.2308
2023-04-11T06:42:41.050Z,568.6154
2023-04-11T06:43:42.539Z,570.9231
2023-04-11T06:44:44.373Z,572.1539
2023-04-11T06:45:45.652Z,571.8461
2023-04-11T06:46:47.488Z,575.3077
2023-04-11T06:47:49.075Z,576.0000
2023-04-11T06:48:50.634Z,575.1539
2023-04-11T06:49:52.240Z,574.1539
2023-04-11T06:50:55.046Z,573.8461
2023-04-11T06:51:55.548Z,573.7692
2023-04-11T06:52:57.299Z,576.3077
2023-04-11T06:53:58.888Z,576.0769
2023-04-11T06:55:00.564Z,577.3846
2023-04-11T06:56:02.164Z,577.2308
2023-04-11T06:57:03.881Z,575.4615
2023-04-11T06:58:05.355Z,576.3077
2023-04-11T06:59:07.301Z,576.3846
2023-04-11T07:00:08.727Z,576.5385
2023-04-11T07:01:10.373Z,576.6154
2023-04-11T07:02:12.112Z,577.4615
2023-04-11T07:03:13.797Z,576.3077
2023-04-11T07:04:15.516Z,577.0769
2023-04-11T07:05:16.981Z,578.8461
2023-04-11T07:06:18.696Z,577.1539
2023-04-11T07:07:20.318Z,575.7692
2023-04-11T07:08:21.894Z,575.4615
2023-04-11T07:09:23.592Z,574.7692
2023-04-11T07:10:25.258Z,572.6923
2023-04-11T07:11:26.950Z,572.6154
2023-04-11T07:12:28.458Z,572.4615
2023-04-11T07:13:30.904Z,571.0769
2023-04-11T07:14:31.904Z,571.6923
2023-04-11T07:15:33.463Z,572.1539
2023-04-11T07:16:35.170Z,571.1539
2023-04-11T07:17:36.967Z,572.1539
2023-04-11T07:18:38.400Z,571.9231
2023-04-11T07:19:40.103Z,569.5385
2023-04-11T07:20:41.725Z,569.7692
2023-04-11T07:21:43.405Z,567.6154
2023-04-11T07:22:45.032Z,567.7692
2023-04-11T07:23:46.661Z,566.4615
2023-04-11T07:24:48.340Z,567.4615
2023-04-11T07:25:49.953Z,567.0769
2023-04-11T07:26:51.798Z,568.6923
2023-04-11T07:27:53.334Z,569.9231
2023-04-11T07:28:54.972Z,568.8461
2023-04-11T07:29:56.830Z,570.5385
2023-04-11T07:30:58.244Z,572.3077
2023-04-11T07:31:59.863Z,570.1539
2023-04-11T07:33:01.505Z,568.6154
2023-04-11T07:34:03.135Z,569.5385
2023-04-11T07:35:05.050Z,571.9231
2023-04-11T07:36:06.499Z,573.7692
2023-04-11T07:37:08.081Z,574.4615
2023-04-11T07:38:09.790Z,573.3846
2023-04-11T07:39:11.460Z,573.3846
2023-04-11T07:40:13.522Z,576.4615
2023-04-11T07:41:14.694Z,574.3077
2023-04-11T07:42:16.311Z,570.0769
2023-04-11T07:43:18.116Z,569.4615
2023-04-11T07:44:19.825Z,569.3077
2023-04-11T07:45:21.365Z,567.6154
2023-04-11T07:46:22.949Z,567.8461
2023-04-11T07:47:24.603Z,570.4615
2023-04-11T07:48:26.344Z,572.3846
2023-04-11T07:49:27.948Z,574.0769
2023-04-11T07:50:29.768Z,575.3077
2023-04-11T07:51:31.154Z,573.2308
2023-04-11T07:52:32.911Z,572.5385
2023-04-11T07:53:34.504Z,573.7692
2023-04-11T07:54:36.101Z,574.0000
2023-04-11T07:55:37.837Z,572.3077
2023-04-11T07:56:40.405Z,572.3846
2023-04-11T07:57:41.087Z,572.6154
2023-04-11T07:58:42.772Z,572.8461
2023-04-11T07:59:44.572Z,573.0000
2023-04-11T08:00:45.991Z,572.5385
2023-04-11T08:01:47.775Z,570.8461
2023-04-11T08:02:50.356Z,571.1539
2023-04-11T08:03:51.076Z,571.0000
2023-04-11T08:04:52.754Z,573.6923
2023-04-11T08:05:54.239Z,574.4615
2023-04-11T08:06:55.896Z,574.2308
2023-04-11T08:07:57.568Z,573.7692
2023-04-11T08:08:59.285Z,575.6154
2023-04-11T08:10:00.848Z,575.2308
2023-04-11T08:11:02.506Z,576.0769
2023-04-11T08:12:04.200Z,576.2308
2023-04-11T08:13:05.856Z,576.3846
2023-04-11T08:14:07.416Z,573.9231
2023-04-11T08:15:09.167Z,572.2308
2023-04-11T08:16:10.837Z,571.5385
2023-04-11T08:17:25.143Z,571.8461
2023-04-11T08:18:14.068Z,571.7500
2023-04-11T08:19:15.698Z,571.5385
2023-04-11T08:20:17.416Z,571.8461
2023-04-11T08:21:19.045Z,571.4615
2023-04-11T08:22:21.022Z,569.4615
2023-04-11T08:23:22.384Z,567.3077
2023-04-11T08:24:23.962Z,564.3846
2023-04-11T08:25:25.630Z,565.3846
2023-04-11T08:26:27.957Z,567.1539
2023-04-11T08:27:28.912Z,568.1539
2023-04-11T08:28:30.714Z,569.2308
2023-04-11T08:29:32.436Z,569.5385
2023-04-11T08:30:33.868Z,568.6154
2023-04-11T08:31:35.456Z,565.6923
2023-04-11T08:32:37.420Z,563.6154
2023-04-11T08:33:38.713Z,565.7692
2023-04-11T08:34:40.389Z,565.6923
2023-04-11T08:35:42.112Z,564.4615
2023-04-11T08:36:43.712Z,565.8461
2023-04-11T08:37:45.938Z,567.3846
2023-04-11T08:38:47.023Z,567.1539
2023-04-11T08:39:48.709Z,566.5385
2023-04-11T08:40:50.532Z,566.6923
2023-04-11T08:41:52.201Z,568.5385
2023-04-11T08:42:53.633Z,568.0000
2023-04-11T08:43:55.572Z,570.0769
2023-04-11T08:44:56.925Z,571.3846
2023-04-11T08:45:58.569Z,569.3846
2023-04-11T08:47:00.283Z,569.1539
2023-04-11T08:48:01.907Z,567.0769
2023-04-11T08:49:03.703Z,565.5385
2023-04-11T08:50:05.091Z,564.3077
2023-04-11T08:51:06.807Z,567.5385
2023-04-11T08:52:08.807Z,567.6154
2023-04-11T08:53:10.055Z,566.9231
2023-04-11T08:54:11.726Z,566.2308
2023-04-11T08:55:13.413Z,566.6923
2023-04-11T08:56:15.023Z,567.8461
2023-04-11T08:57:16.722Z,568.7692
2023-04-11T08:58:18.414Z,569.2308
2023-04-11T08:59:20.052Z,570.0000
2023-04-11T09:00:21.613Z,569.3846
2023-04-11T09:01:23.355Z,570.1539
2023-04-11T09:02:25.109Z,568.7692
2023-04-11T09:03:26.605Z,568.4615
2023-04-11T09:04:29.073Z,566.3846
2023-04-11T09:05:30.202Z,567.8461
2023-04-11T09:06:31.598Z,568.3077
2023-04-11T09:07:33.216Z,568.3077
2023-04-11T09:08:34.830Z,567.0000
2023-04-11T09:09:36.471Z,567.9231
2023-04-11T09:10:38.089Z,568.3846
2023-04-11T09:11:39.764Z,568.9231
2023-04-11T09:12:41.408Z,569.0769
2023-04-11T09:13:43.817Z,567.5385
2023-04-11T09:14:44.694Z,566.3846
2023-04-11T09:15:46.451Z,565.3077
2023-04-11T09:16:47.898Z,562.6923
2023-04-11T09:17:49.546Z,564.1539
2023-04-11T09:18:51.209Z,562.2308
2023-04-11T09:19:52.872Z,560.5385
2023-04-11T09:20:54.584Z,560.1539
2023-04-11T09:21:56.205Z,558.0000
2023-04-11T09:22:57.821Z,558.8461
2023-04-11T09:23:59.427Z,557.0769
2023-04-11T09:25:01.146Z,557.6923
2023-04-11T09:26:02.840Z,559.6154
2023-04-11T09:27:04.454Z,561.3077
2023-04-11T09:28:06.137Z,563.7692
2023-04-11T09:29:07.746Z,565.7692
2023-04-11T09:30:09.397Z,563.9231
2023-04-11T09:31:11.423Z,562.2308
2023-04-11T09:32:13.403Z,560.1539
2023-04-11T09:33:14.359Z,561.2308
2023-04-11T09:34:16.414Z,561.6154
2023-04-11T09:35:18.236Z,565.6154
2023-04-11T09:36:19.330Z,563.2308
2023-04-11T09:37:21.050Z,561.0769
2023-04-11T09:38:22.825Z,561.5385
2023-04-11T09:39:24.296Z,560.9231
2023-04-11T09:40:25.905Z,562.0769
2023-04-11T09:41:27.813Z,563.2308
2023-04-11T09:42:29.311Z,565.4615
2023-04-11T09:43:30.922Z,567.0000
2023-04-11T09:44:32.701Z,567.0769
2023-04-11T09:45:44.212Z,567.0769
2023-04-11T09:46:35.809Z,564.6667
2023-04-11T09:47:37.498Z,564.8461
2023-04-11T09:48:46.502Z,565.2308
2023-04-11T09:49:40.837Z,566.2500
2023-04-11T09:50:42.448Z,566.2308
2023-04-11T09:51:44.025Z,567.0769
2023-04-11T09:52:45.689Z,565.6154
2023-04-11T09:53:47.397Z,567.2308
2023-04-11T09:54:48.980Z,567.0769
2023-04-11T09:55:50.662Z,567.6154
2023-04-11T09:56:52.348Z,567.3846
2023-04-11T09:57:54.918Z,567.6154
2023-04-11T09:58:55.872Z,570.7692
2023-04-11T09:59:58.789Z,572.3077
2023-04-11T10:00:58.814Z,573.3846
2023-04-11T10:02:00.625Z,571.1539
2023-04-11T10:03:02.613Z,569.9231
2023-04-11T10:04:04.589Z,568.6154
2023-04-11T10:05:05.609Z,568.6154
2023-04-11T10:06:07.215Z,566.8461
2023-04-11T10:07:08.842Z,564.6154
2023-04-11T10:08:10.515Z,565.3846
2023-04-11T10:09:12.182Z,565.5385
2023-04-11T10:10:13.783Z,565.0769
2023-04-11T10:11:15.438Z,565.4615
2023-04-11T10:12:17.149Z,566.7692
2023-04-11T10:13:18.840Z,566.9231
2023-04-11T10:14:20.532Z,568.0000
2023-04-11T10:15:21.981Z,566.0000
2023-04-11T10:16:23.821Z,567.3846
2023-04-11T10:17:25.411Z,568.6923
2023-04-11T10:18:27.004Z,567.1539
2023-04-11T10:19:28.686Z,566.1539
2023-04-11T10:20:30.319Z,567.2308
2023-04-11T10:21:32.026Z,568.0000
2023-04-11T10:22:33.576Z,567.3077
2023-04-11T10:23:35.272Z,567.5385
2023-04-11T10:24:36.972Z,567.2308
2023-04-11T10:25:38.559Z,568.0000
2023-04-11T10:26:40.173Z,569.9231
2023-04-11T10:27:41.841Z,570.4615
2023-04-11T10:28:43.726Z,567.6923
2023-04-11T10:29:45.282Z,565.9231
2023-04-11T10:30:46.866Z,564.8461
2023-04-11T10:31:48.634Z,560.7692
2023-04-11T10:32:50.191Z,560.5385
2023-04-11T10:33:51.989Z,561.8461
2023-04-11T10:34:53.556Z,562.4615
2023-04-11T10:35:55.171Z,561.8461
2023-04-11T10:36:56.764Z,562.0769
2023-04-11T10:37:58.990Z,563.2308
2023-04-11T10:39:00.090Z,562.5385
2023-04-11T10:40:01.816Z,561.2308
2023-04-11T10:41:03.470Z,561.4615
2023-04-11T10:42:05.032Z,563.6154
2023-04-11T10:43:07.499Z,566.6923
2023-04-11T10:44:08.362Z,568.3077
2023-04-11T10:45:10.144Z,569.1539
2023-04-11T10:46:11.590Z,568.0769
2023-04-11T10:47:13.593Z,567.2308
2023-04-11T10:48:14.911Z,567.6923
2023-04-11T10:49:16.578Z,565.3846
2023-04-11T10:50:18.655Z,566.6154
2023-04-11T10:51:19.891Z,568.2308
2023-04-11T10:52:21.570Z,566.2308
2023-04-11T10:53:23.217Z,564.7692
2023-04-11T10:54:24.883Z,563.3846
2023-04-11T10:55:27.086Z,561.3846
2023-04-11T10:56:28.184Z,559.8461
2023-04-11T10:57:29.841Z,557.7692
2023-04-11T10:58:31.475Z,557.1539
2023-04-11T10:59:33.097Z,559.6154
2023-04-11T11:00:35.198Z,562.0769
2023-04-11T11:01:42.966Z,562.6154
2023-04-11T11:02:38.425Z,562.5000
2023-04-11T11:03:39.926Z,564.2308
2023-04-11T11:04:41.417Z,564.7692
2023-04-11T11:05:42.997Z,563.5385
2023-04-11T11:06:51.103Z,565.8461
2023-04-11T11:07:46.251Z,564.4167
2023-04-11T11:08:48.397Z,562.6154
2023-04-11T11:09:49.514Z,561.9231
2023-04-11T11:10:51.274Z,560.1539
2023-04-11T11:11:52.818Z,560.8461
2023-04-11T11:12:54.549Z,562.4615
2023-04-11T11:13:56.490Z,562.5385
2023-04-11T11:14:57.814Z,563.9231
2023-04-11T11:15:59.418Z,565.7692
2023-04-11T11:17:01.222Z,563.3846
2023-04-11T11:18:02.756Z,560.4615
2023-04-11T11:19:04.872Z,556.9231
2023-04-11T11:20:06.039Z,554.8461
2023-04-11T11:21:14.170Z,556.6154
2023-04-11T11:22:09.307Z,557.6667
2023-04-11T11:23:14.125Z,556.0000
2023-04-11T11:24:17.585Z,557.5714
2023-04-11T11:25:19.189Z,561.3077
2023-04-11T11:26:20.806Z,563.8461
2023-04-11T11:27:22.413Z,567.3846
2023-04-11T11:28:24.169Z,567.2308
2023-04-11T11:29:25.798Z,567.6923
2023-04-11T11:30:27.357Z,569.6923
2023-04-11T11:31:30.033Z,568.0000
2023-04-11T11:32:30.641Z,566.2308
2023-04-11T11:33:32.396Z,567.6923
2023-04-11T11:34:34.056Z,567.8461
2023-04-11T11:35:35.688Z,567.3846
2023-04-11T11:36:37.249Z,567.4615
2023-04-11T11:37:38.896Z,568.3846
2023-04-11T11:38:41.390Z,568.6154
2023-04-11T11:39:42.238Z,568.5385
2023-04-11T11:40:43.807Z,569.8461
2023-04-11T11:41:46.560Z,570.6154
2023-04-11T11:42:47.140Z,571.0000
2023-04-11T11:43:48.736Z,570.0000
2023-04-11T11:44:50.550Z,565.3846
2023-04-11T11:45:52.138Z,563.8461
2023-04-11T11:46:53.742Z,562.7692
2023-04-11T11:47:55.886Z,561.3077
2023-04-11T11:48:57.288Z,561.2308
2023-04-11T11:49:58.668Z,562.8461
2023-04-11T11:51:01.008Z,563.1539
2023-04-11T11:52:02.099Z,561.5385
2023-04-11T11:53:03.702Z,563.2308
2023-04-11T11:54:05.351Z,564.0000
2023-04-11T11:55:10.860Z,565.6923
2023-04-11T11:56:08.713Z,566.4167
2023-04-11T11:57:10.680Z,565.3077
2023-04-11T11:58:12.153Z,565.3846
2023-04-11T11:59:13.672Z,565.0769
2023-04-11T12:00:15.290Z,566.6154
2023-04-11T12:01:17.196Z,569.0769
2023-04-11T12:02:18.691Z,572.1539
2023-04-11T12:03:20.608Z,572.1539
2023-04-11T12:04:22.189Z,572.6154